createdAt,value
2023-04-09T00:00:43.267Z,4.38
2023-04-09T00:11:06.890Z,4.17
2023-04-09T00:21:10.327Z,4.26
2023-04-09T00:31:45.788Z,4.24
2023-04-09T00:41:49.185Z,4.14
2023-04-09T00:51:53.424Z,4.20
2023-04-09T01:02:58.384Z,4.23
2023-04-09T01:14:31.634Z,4.37
2023-04-09T01:25:47.839Z,4.37
2023-04-09T01:36:53.760Z,4.32
2023-04-09T01:48:04.240Z,4.38
2023-04-09T01:59:08.828Z,4.40
2023-04-09T02:10:33.112Z,4.47
2023-04-09T02:21:55.465Z,4.45
2023-04-09T02:33:09.750Z,4.36
2023-04-09T02:44:34.262Z,4.37
2023-04-09T02:55:58.883Z,4.50
2023-04-09T03:07:17.478Z,4.43
2023-04-09T03:18:35.144Z,4.29
2023-04-09T03:29:56.169Z,4.42
2023-04-09T03:41:06.362Z,4.48
2023-04-09T03:52:31.721Z,4.30
2023-04-09T04:03:56.643Z,4.14
2023-04-09T04:15:13.668Z,4.26
2023-04-09T04:26:38.104Z,4.47
2023-04-09T04:38:02.715Z,4.55
2023-04-09T04:49:27.138Z,4.58
2023-04-09T05:00:46.237Z,4.56
2023-04-09T05:12:10.968Z,4.63
2023-04-09T05:23:31.278Z,4.73
2023-04-09T05:34:56.240Z,4.87
2023-04-09T05:46:20.921Z,4.91
2023-04-09T05:57:45.358Z,5.03
2023-04-09T06:09:09.849Z,5.40
2023-04-09T06:20:34.874Z,5.90
2023-04-09T06:31:57.946Z,6.35
2023-04-09T06:43:14.322Z,6.69
2023-04-09T06:54:35.933Z,6.98
2023-04-09T07:06:00.177Z,7.23
2023-04-09T07:17:14.510Z,7.50
2023-04-09T07:27:52.451Z,7.65
2023-04-09T07:39:09.710Z,7.67
2023-04-09T07:50:16.541Z,7.91
2023-04-09T08:01:22.020Z,8.73
2023-04-09T08:12:33.329Z,9.72
2023-04-09T08:23:36.525Z,10.19
2023-04-09T08:35:00.986Z,10.34
2023-04-09T08:46:16.974Z,10.66
2023-04-09T08:57:41.384Z,11.38
2023-04-09T09:08:08.808Z,11.88
2023-04-09T09:18:54.156Z,12.51
2023-04-09T09:29:51.839Z,12.63
2023-04-09T09:41:08.680Z,12.32
2023-04-09T09:52:03.612Z,12.33
2023-04-09T10:02:41.797Z,12.30
2023-04-09T10:13:56.820Z,12.24
2023-04-09T10:24:58.049Z,11.69
2023-04-09T10:35:21.792Z,11.31
2023-04-09T10:46:24.512Z,11.37
2023-04-09T10:58:02.792Z,11.38
2023-04-09T11:09:01.361Z,11.16
2023-04-09T11:20:09.816Z,11.30
2023-04-09T11:30:51.590Z,11.26
2023-04-09T11:41:53.453Z,11.57
2023-04-09T11:52:44.409Z,12.02
2023-04-09T12:03:39.513Z,12.10
2023-04-09T12:14:54.199Z,12.11
2023-04-09T12:26:21.351Z,12.20
2023-04-09T12:37:21.503Z,12.22
2023-04-09T12:48:10.560Z,11.94
2023-04-09T12:59:09.211Z,11.50
2023-04-09T13:09:56.663Z,11.22
2023-04-09T13:21:03.990Z,10.79
2023-04-09T13:32:21.524Z,10.25
2023-04-09T13:43:13.417Z,9.75
2023-04-09T13:53:59.375Z,9.55
2023-04-09T14:05:04.391Z,9.75
2023-04-09T14:15:54.471Z,10.20
2023-04-09T14:27:19.356Z,10.75
2023-04-09T14:38:37.592Z,10.88
2023-04-09T14:51:06.686Z,10.66
2023-04-09T15:01:44.006Z,10.76
2023-04-09T15:12:06.127Z,11.04
2023-04-09T15:22:09.183Z,11.06
2023-04-09T15:32:12.461Z,11.16
2023-04-09T15:42:53.666Z,11.08
2023-04-09T15:52:57.024Z,11.02
2023-04-09T16:03:00.274Z,11.08
2023-04-09T16:13:37.246Z,10.81
2023-04-09T16:23:44.857Z,10.51
2023-04-09T16:33:48.512Z,10.23
2023-04-09T16:43:52.205Z,9.93
2023-04-09T16:53:55.669Z,9.46
2023-04-09T17:04:00.903Z,8.95
2023-04-09T17:14:04.714Z,8.51
2023-04-09T17:24:08.618Z,7.96
2023-04-09T17:34:13.674Z,7.34
2023-04-09T17:44:17.563Z,6.80
2023-04-09T17:54:21.014Z,6.42
2023-04-09T18:04:25.569Z,6.05
2023-04-09T18:14:33.720Z,5.64
2023-04-09T18:24:36.831Z,5.38
2023-04-09T18:34:40.183Z,5.20
2023-04-09T18:44:44.076Z,5.18
2023-04-09T18:54:48.402Z,5.30
2023-04-09T19:04:53.053Z,5.37
2023-04-09T19:14:56.231Z,5.34
2023-04-09T19:24:59.332Z,5.35
2023-04-09T19:35:02.891Z,5.30
2023-04-09T19:45:06.524Z,5.22
2023-04-09T19:55:10.151Z,5.23
2023-04-09T20:05:14.400Z,5.24
2023-04-09T20:15:21.020Z,5.28
2023-04-09T20:25:25.040Z,5.25
2023-04-09T20:35:28.545Z,5.24
2023-04-09T20:45:31.783Z,5.10
2023-04-09T20:55:35.824Z,5.07
2023-04-09T21:05:40.393Z,5.16
2023-04-09T21:15:43.436Z,5.06
2023-04-09T21:25:46.570Z,4.88
2023-04-09T21:35:53.686Z,4.64
2023-04-09T21:45:57.559Z,4.69
2023-04-09T21:56:34.133Z,4.61
2023-04-09T22:06:37.871Z,4.49
2023-04-09T22:16:44.018Z,4.37
2023-04-09T22:26:47.212Z,4.16
2023-04-09T22:36:50.824Z,4.08
2023-04-09T22:46:54.466Z,3.88
2023-04-09T22:56:58.356Z,3.73
2023-04-09T23:07:02.657Z,3.58
2023-04-09T23:17:39.334Z,3.38
2023-04-09T23:27:43.036Z,3.01
2023-04-09T23:37:48.906Z,2.80
2023-04-09T23:47:53.202Z,2.62
2023-04-09T23:57:57.942Z,2.42
